Time;durP1;ratioP1;P1;durP2;ratioP2;P2;SDS_P1;SDS_P2;PMS_P1;PMS_P2;Temp;Humidity;BMP_temperature;BMP_pressure;BME280_temperature;BME280_humidity;BME280_pressure;Samples;Min_cycle;Max_cycle;Signal;HPM_P1;HPM_P2
2021/08/15 00:01:27;;;;;;;6.55;2.90;;;;;;;17.23;73.57;101774.28;5065203;28;20020;-74
2021/08/15 00:03:53;;;;;;;8.10;2.47;;;;;;;17.13;74.60;101772.19;5084049;28;20320;-74
2021/08/15 00:06:19;;;;;;;4.10;3.20;;;;;;;17.28;72.93;101752.81;5085517;28;20028;-74
2021/08/15 00:08:45;;;;;;;4.78;3.03;;;;;;;17.21;73.77;101746.19;5086111;28;20042;-74
2021/08/15 00:11:11;;;;;;;6.93;3.03;;;;;;;17.15;73.99;101741.19;5086001;28;20034;-74
2021/08/15 00:13:36;;;;;;;6.22;2.53;;;;;;;17.04;76.13;101739.97;5103608;28;20019;-74
2021/08/15 00:16:01;;;;;;;10.23;3.10;;;;;;;16.88;76.40;101731.16;5104006;28;20047;-74
2021/08/15 00:18:27;;;;;;;4.28;3.00;;;;;;;16.80;76.45;101738.63;5085154;28;20095;-74
2021/08/15 00:20:52;;;;;;;6.85;3.17;;;;;;;16.73;76.96;101726.66;5085586;28;20060;-74
2021/08/15 00:23:18;;;;;;;5.57;2.80;;;;;;;16.66;77.07;101740.22;5085244;28;20032;-74
2021/08/15 00:25:43;;;;;;;4.72;2.80;;;;;;;16.59;76.82;101740.59;5103713;28;20040;-74
2021/08/15 00:28:09;;;;;;;5.38;2.28;;;;;;;16.48;77.30;101747.28;5068804;28;20061;-74
2021/08/15 00:30:34;;;;;;;3.67;2.30;;;;;;;16.71;75.82;101734.66;5085017;28;20065;-74
2021/08/15 00:32:59;;;;;;;4.93;2.83;;;;;;;16.65;76.57;101727.91;5085679;28;20039;-75
2021/08/15 00:35:25;;;;;;;6.15;2.97;;;;;;;16.79;75.35;101734.25;5102899;28;20099;-74
2021/08/15 00:37:50;;;;;;;4.05;2.47;;;;;;;16.68;75.59;101727.75;5085532;28;20077;-74
2021/08/15 00:40:16;;;;;;;5.28;2.42;;;;;;;16.76;75.18;101721.22;5102836;28;20055;-75
2021/08/15 00:42:41;;;;;;;2.90;2.40;;;;;;;16.73;75.31;101716.91;5085323;28;20039;-75
2021/08/15 00:45:07;;;;;;;4.78;2.50;;;;;;;16.67;75.44;101720.75;5085411;28;20043;-74
2021/08/15 00:47:33;;;;;;;5.13;2.35;;;;;;;16.54;75.96;101722.31;5068080;28;20020;-74
2021/08/15 00:49:59;;;;;;;4.70;2.15;;;;;;;16.55;76.27;101718.72;5085320;28;20035;-74
2021/08/15 00:52:25;;;;;;;3.22;2.17;;;;;;;16.16;79.12;101722.50;5084619;28;20035;-74
2021/08/15 00:54:50;;;;;;;4.53;2.72;;;;;;;16.00;80.06;101710.97;5103239;28;20038;-74
2021/08/15 00:57:16;;;;;;;6.95;2.45;;;;;;;15.93;79.70;101710.41;5084601;28;20047;-73
2021/08/15 00:59:44;;;;;;;14.13;2.70;;;;;;;15.65;81.37;101724.94;5103205;28;20027;-74
2021/08/15 01:02:50;;;;;;;4.30;2.67;;;;;;;15.64;81.51;101723.22;5054086;28;20220;-74
2021/08/15 01:05:16;;;;;;;3.70;2.20;;;;;;;15.50;82.26;101717.75;5081723;28;20032;-74
2021/08/15 01:07:42;;;;;;;5.80;2.45;;;;;;;15.58;81.98;101709.47;5065810;28;20031;-74
2021/08/15 01:10:10;;;;;;;5.88;2.70;;;;;;;15.69;81.77;101708.00;5048055;28;20223;-74
2021/08/15 01:12:35;;;;;;;5.72;2.85;;;;;;;15.61;82.27;101704.00;5047892;28;20036;-74
2021/08/15 01:15:01;;;;;;;5.30;2.72;;;;;;;15.85;80.42;101702.03;5046932;28;20092;-74
2021/08/15 01:17:27;;;;;;;6.18;2.60;;;;;;;15.81;81.76;101689.88;5081909;28;20048;-74
2021/08/15 01:19:53;;;;;;;5.18;2.95;;;;;;;16.09;80.34;101682.28;5048315;28;20028;-74
2021/08/15 01:22:20;;;;;;;7.40;3.25;;;;;;;15.99;80.53;101678.44;5064312;28;20232;-74
2021/08/15 01:24:45;;;;;;;5.10;3.20;;;;;;;15.96;80.44;101691.78;5031225;28;20025;-74
2021/08/15 01:27:11;;;;;;;3.72;3.40;;;;;;;15.82;81.22;101686.31;5047577;28;20308;-74
2021/08/15 01:29:38;;;;;;;3.42;3.10;;;;;;;15.91;81.05;101683.22;5047983;28;20048;-74
2021/08/15 01:32:03;;;;;;;6.50;2.92;;;;;;;15.75;81.73;101675.19;5047816;28;20376;-74
2021/08/15 01:34:28;;;;;;;6.32;3.67;;;;;;;15.99;80.65;101680.19;5063774;28;20036;-74
2021/08/15 01:36:54;;;;;;;7.53;2.92;;;;;;;16.00;79.60;101679.28;5064351;28;20051;-74
2021/08/15 01:39:19;;;;;;;4.57;3.35;;;;;;;15.78;81.20;101669.78;5081664;28;20047;-74
2021/08/15 01:41:45;;;;;;;5.80;3.58;;;;;;;15.77;82.32;101668.06;5064195;28;20037;-74
2021/08/15 01:44:10;;;;;;;6.78;2.90;;;;;;;15.79;82.58;101670.63;5064078;28;20071;-74
2021/08/15 01:46:36;;;;;;;9.05;3.17;;;;;;;15.68;82.44;101674.63;5081455;28;20103;-74
2021/08/15 01:49:02;;;;;;;5.90;3.03;;;;;;;15.51;83.30;101678.06;5064225;28;20091;-74
2021/08/15 01:51:27;;;;;;;5.45;2.97;;;;;;;15.73;82.44;101675.25;5063800;28;20043;-74
2021/08/15 01:53:54;;;;;;;4.55;3.15;;;;;;;15.70;82.49;101670.13;5063973;28;20039;-74
2021/08/15 01:56:19;;;;;;;4.78;2.97;;;;;;;15.68;82.36;101674.63;5046897;28;20093;-74
2021/08/15 01:58:45;;;;;;;5.05;3.10;;;;;;;15.62;82.74;101674.06;5063740;28;20040;-74
2021/08/15 02:01:17;;;;;;;7.25;3.30;;;;;;;15.58;82.82;101668.06;5064020;28;20032;-74
2021/08/15 02:03:43;;;;;;;3.63;2.70;;;;;;;15.85;82.50;101652.69;5047417;28;20528;-74
2021/08/15 02:06:09;;;;;;;4.05;2.90;;;;;;;15.76;82.59;101649.66;5063917;28;20176;-74
2021/08/15 02:08:34;;;;;;;3.95;3.20;;;;;;;15.91;82.14;101652.38;5081058;28;20382;-74
2021/08/15 02:11:00;;;;;;;3.45;2.80;;;;;;;15.82;82.38;101650.19;5063688;28;20029;-74
2021/08/15 02:13:26;;;;;;;5.75;2.75;;;;;;;15.81;82.64;101637.06;5063085;28;20109;-74
2021/08/15 02:15:51;;;;;;;5.00;2.70;;;;;;;15.82;82.12;101631.69;5047291;28;20320;-74
2021/08/15 02:18:17;;;;;;;3.75;3.10;;;;;;;15.88;82.19;101652.53;5046603;28;20130;-74
2021/08/15 02:20:47;;;;;;;7.03;3.10;;;;;;;15.72;82.51;101641.84;5063306;28;20062;-73
2021/08/15 02:23:12;;;;;;;7.57;3.10;;;;;;;15.82;82.62;101642.25;5046296;28;20323;-72
2021/08/15 02:25:37;;;;;;;4.78;2.95;;;;;;;15.90;82.41;101634.81;5062962;28;20020;-72
2021/08/15 02:28:04;;;;;;;5.70;2.90;;;;;;;15.86;83.05;101627.13;5046541;28;20055;-72
2021/08/15 02:30:30;;;;;;;6.18;4.15;;;;;;;15.89;82.88;101632.25;5062738;28;20342;-72
2021/08/15 02:32:55;;;;;;;9.65;3.42;;;;;;;15.89;82.79;101622.53;5081064;28;20046;-71
2021/08/15 02:35:21;;;;;;;8.15;3.70;;;;;;;15.80;83.50;101608.94;5062709;28;20016;-71
2021/08/15 02:37:48;;;;;;;6.45;2.92;;;;;;;15.98;83.13;101600.09;5080725;28;20032;-71
2021/08/15 02:40:14;;;;;;;6.90;3.20;;;;;;;15.97;82.43;101606.31;5046467;28;20300;-71
2021/08/15 02:42:40;;;;;;;6.68;3.38;;;;;;;15.80;83.24;101598.38;5062788;28;20038;-71
2021/08/15 02:45:06;;;;;;;4.45;2.88;;;;;;;16.01;82.19;101596.44;5080657;28;20033;-71
2021/08/15 02:47:31;;;;;;;9.15;4.22;;;;;;;16.05;80.87;101598.84;5045901;28;20032;-71
2021/08/15 02:49:57;;;;;;;6.65;3.65;;;;;;;15.97;81.78;101605.44;5080703;28;20359;-71
2021/08/15 02:52:22;;;;;;;9.75;3.80;;;;;;;16.11;80.68;101587.09;5062593;28;20055;-71
2021/08/15 02:54:48;;;;;;;6.55;4.05;;;;;;;16.11;80.63;101608.22;5081079;28;20098;-74
2021/08/15 02:57:13;;;;;;;9.23;4.15;;;;;;;15.87;81.65;101597.16;5062320;28;20039;-74
2021/08/15 02:59:39;;;;;;;8.93;4.10;;;;;;;16.00;80.93;101600.88;5062563;28;20039;-74
2021/08/15 03:02:17;;;;;;;7.57;4.00;;;;;;;15.80;82.37;101617.72;5062813;28;20028;-74
2021/08/15 03:04:44;;;;;;;5.85;3.25;;;;;;;15.79;81.89;101617.78;5062785;28;20078;-74
2021/08/15 03:07:15;;;;;;;7.43;3.95;;;;;;;15.57;83.13;101621.47;5046501;28;20327;-74
2021/08/15 03:09:41;;;;;;;8.60;4.18;;;;;;;15.64;83.56;101627.31;5080722;28;20109;-74
2021/08/15 03:12:06;;;;;;;6.20;3.75;;;;;;;15.70;83.43;101614.66;5080374;28;20043;-74
2021/08/15 03:14:32;;;;;;;7.20;3.80;;;;;;;15.85;82.76;101617.50;5045407;28;20116;-74
2021/08/15 03:16:57;;;;;;;7.00;3.83;;;;;;;15.71;83.10;101608.44;5062539;28;20305;-74
2021/08/15 03:19:23;;;;;;;9.70;4.30;;;;;;;16.03;80.89;101600.72;5062114;28;20383;-74
2021/08/15 03:21:48;;;;;;;11.18;4.43;;;;;;;16.22;79.65;101603.25;5045721;28;20024;-74
2021/08/15 03:24:14;;;;;;;8.50;4.72;;;;;;;16.03;80.57;101605.16;5061860;28;20043;-74
2021/08/15 03:26:43;;;;;;;12.75;5.20;;;;;;;15.95;81.13;101602.03;5045529;28;20219;-74
2021/08/15 03:29:09;;;;;;;9.30;4.90;;;;;;;15.93;80.50;101595.06;5046783;28;20085;-74
2021/08/15 03:31:35;;;;;;;9.25;4.95;;;;;;;15.97;80.82;101597.53;5062004;28;20081;-74
2021/08/15 03:34:00;;;;;;;15.57;5.47;;;;;;;15.92;81.19;101593.34;5062195;28;20017;-74
2021/08/15 03:36:26;;;;;;;10.25;5.50;;;;;;;16.18;79.52;101595.56;5028669;28;20020;-74
2021/08/15 03:38:52;;;;;;;9.07;5.03;;;;;;;16.23;78.97;101585.63;5061931;28;20193;-74
2021/08/15 03:41:17;;;;;;;9.13;5.05;;;;;;;16.26;79.31;101581.03;5079780;28;20036;-74
2021/08/15 03:43:43;;;;;;;9.77;5.43;;;;;;;16.15;79.48;101583.34;5079725;28;20040;-74
2021/08/15 03:46:08;;;;;;;11.55;5.32;;;;;;;16.16;80.27;101579.78;5045735;28;20038;-74
2021/08/15 03:48:33;;;;;;;9.35;4.95;;;;;;;16.30;79.15;101585.22;5044992;28;20078;-74
2021/08/15 03:50:59;;;;;;;12.15;4.90;;;;;;;16.33;79.75;101580.69;5080053;28;20340;-74
2021/08/15 03:53:24;;;;;;;13.52;5.47;;;;;;;16.43;78.82;101577.47;5061615;28;20042;-74
2021/08/15 03:55:50;;;;;;;13.27;5.78;;;;;;;16.63;77.50;101565.81;5045389;28;20067;-74
2021/08/15 03:58:15;;;;;;;12.02;5.63;;;;;;;16.57;77.98;101566.16;5079612;28;20051;-74
2021/08/15 04:00:41;;;;;;;9.40;5.18;;;;;;;16.49;78.50;101566.56;5079647;28;20334;-74
2021/08/15 04:03:10;;;;;;;13.60;5.47;;;;;;;16.37;79.18;101572.53;5079914;28;20204;-74
2021/08/15 04:05:35;;;;;;;11.75;5.53;;;;;;;16.31;79.36;101571.03;5079275;28;20032;-74
2021/08/15 04:08:00;;;;;;;13.20;5.30;;;;;;;16.34;79.67;101570.03;5061870;28;20193;-74
2021/08/15 04:10:26;;;;;;;11.18;5.30;;;;;;;16.36;79.86;101577.91;5061467;28;20339;-74
2021/08/15 04:12:52;;;;;;;12.82;5.30;;;;;;;16.30;80.46;101573.78;5045333;28;20393;-74
2021/08/15 04:15:17;;;;;;;9.23;5.20;;;;;;;16.33;80.24;101568.31;5079372;28;20048;-74
2021/08/15 04:17:42;;;;;;;13.45;5.55;;;;;;;16.44;79.84;101562.47;5044899;28;20043;-74
2021/08/15 04:20:08;;;;;;;11.00;6.10;;;;;;;16.69;79.08;101551.41;5061750;28;20032;-74
2021/08/15 04:22:33;;;;;;;11.75;5.65;;;;;;;16.40;80.52;101551.19;5044512;28;20032;-74
2021/08/15 04:24:59;;;;;;;15.55;6.45;;;;;;;16.44;80.39;101551.88;5062116;28;20020;-74
2021/08/15 04:27:24;;;;;;;15.93;6.35;;;;;;;16.39;80.87;101548.63;5078924;28;20039;-74
2021/08/15 04:29:50;;;;;;;14.13;6.35;;;;;;;16.35;80.87;101542.66;5045132;28;20032;-74
2021/08/15 04:32:15;;;;;;;9.10;5.38;;;;;;;16.32;81.32;101545.47;5079139;28;20032;-72
2021/08/15 04:34:41;;;;;;;13.88;5.10;;;;;;;16.21;81.97;101538.13;5079422;28;20056;-74
2021/08/15 04:37:08;;;;;;;12.07;5.82;;;;;;;16.33;81.21;101538.41;5045027;28;20065;-74
2021/08/15 04:39:34;;;;;;;14.90;5.57;;;;;;;16.21;82.04;101542.53;5061448;28;20032;-74
2021/08/15 04:41:59;;;;;;;11.77;5.57;;;;;;;16.06;82.81;101539.78;5028449;28;20039;-74
2021/08/15 04:44:25;;;;;;;13.88;6.47;;;;;;;16.17;82.54;101530.44;5078846;28;20289;-74
2021/08/15 04:46:50;;;;;;;15.43;6.97;;;;;;;16.40;81.11;101523.91;5079539;28;20060;-74
2021/08/15 04:49:16;;;;;;;14.88;6.95;;;;;;;16.54;80.42;101526.66;5061103;28;20025;-74
2021/08/15 04:51:41;;;;;;;17.67;6.05;;;;;;;16.47;81.13;101525.28;5064537;28;20223;-74
2021/08/15 04:54:07;;;;;;;12.23;6.15;;;;;;;16.40;81.79;101521.28;5082813;28;20032;-74
2021/08/15 04:56:32;;;;;;;20.63;6.72;;;;;;;16.51;80.91;101516.25;5048025;28;20025;-74
2021/08/15 04:58:57;;;;;;;14.52;5.40;;;;;;;16.45;81.13;101519.25;5048249;28;20062;-74
2021/08/15 05:01:23;;;;;;;15.23;6.30;;;;;;;16.45;81.04;101525.38;5047879;28;20334;-74
2021/08/15 05:03:50;;;;;;;14.18;5.95;;;;;;;16.40;81.50;101519.47;5082748;28;20040;-74
2021/08/15 05:06:15;;;;;;;14.52;5.30;;;;;;;16.41;81.90;101525.59;5082900;28;20239;-74
2021/08/15 05:08:41;;;;;;;10.82;6.00;;;;;;;16.48;81.73;101522.56;5064748;28;20051;-74
2021/08/15 05:11:06;;;;;;;16.23;6.05;;;;;;;16.40;82.08;101523.91;5065028;28;20041;-74
2021/08/15 05:13:31;;;;;;;14.80;6.10;;;;;;;16.43;82.23;101521.97;5082061;28;20029;-74
2021/08/15 05:15:57;;;;;;;14.48;6.15;;;;;;;16.56;82.28;101523.94;5082601;28;20043;-74
2021/08/15 05:18:22;;;;;;;16.67;6.43;;;;;;;16.56;81.87;101524.78;5082118;28;20056;-74
2021/08/15 05:20:48;;;;;;;15.02;6.07;;;;;;;16.53;82.17;101526.75;5064697;28;20024;-75
2021/08/15 05:23:13;;;;;;;14.90;6.45;;;;;;;16.57;82.31;101531.78;5064172;28;20356;-75
2021/08/15 05:25:39;;;;;;;10.82;5.05;;;;;;;16.74;81.10;101530.84;5064513;28;20492;-74
2021/08/15 05:28:05;;;;;;;17.73;6.25;;;;;;;16.84;80.54;101528.56;5082546;28;20228;-75
2021/08/15 05:30:31;;;;;;;21.40;5.70;;;;;;;16.93;80.38;101525.41;5063917;28;20032;-75
2021/08/15 05:32:56;;;;;;;19.60;6.13;;;;;;;16.79;81.41;101520.00;5064794;28;20400;-76
2021/08/15 05:35:22;;;;;;;9.88;4.90;;;;;;;16.79;81.15;101525.28;5064096;28;20103;-76
2021/08/15 05:37:47;;;;;;;10.15;5.32;;;;;;;16.77;81.60;101516.59;5082066;28;20028;-76
2021/08/15 05:40:13;;;;;;;9.65;5.45;;;;;;;16.80;81.14;101508.50;5047534;28;20032;-76
2021/08/15 05:42:38;;;;;;;14.70;5.32;;;;;;;16.93;81.20;101517.47;5047843;28;20216;-76
2021/08/15 05:45:04;;;;;;;13.57;5.60;;;;;;;16.91;81.64;101518.50;5082262;28;20077;-76
2021/08/15 05:47:29;;;;;;;13.75;5.43;;;;;;;16.93;81.58;101516.63;5063768;28;20103;-76
2021/08/15 05:49:55;;;;;;;17.30;5.93;;;;;;;17.06;80.85;101507.91;5064197;28;20066;-76
2021/08/15 05:52:20;;;;;;;16.70;6.40;;;;;;;17.18;79.95;101503.69;5047349;28;20548;-76
2021/08/15 05:54:46;;;;;;;11.95;5.30;;;;;;;17.21;80.52;101508.81;5081758;28;20205;-76
2021/08/15 05:57:11;;;;;;;10.85;6.07;;;;;;;17.30;79.95;101504.78;5063567;28;20025;-76
2021/08/15 05:59:37;;;;;;;10.32;5.75;;;;;;;17.23;80.70;101512.22;5063837;28;20032;-76
2021/08/15 06:02:02;;;;;;;17.08;5.70;;;;;;;17.45;79.19;101510.97;5063579;28;20028;-76
2021/08/15 06:04:28;;;;;;;13.73;5.53;;;;;;;17.60;78.40;101509.19;5063327;28;20066;-76
2021/08/15 06:06:54;;;;;;;12.00;6.28;;;;;;;17.74;78.11;101514.53;5030724;28;20023;-76
2021/08/15 06:09:19;;;;;;;16.58;6.25;;;;;;;17.77;78.28;101513.47;5046633;28;20024;-76
2021/08/15 06:11:46;;;;;;;15.85;5.75;;;;;;;17.88;78.36;101512.84;5047002;28;20040;-76
2021/08/15 06:14:13;;;;;;;19.83;6.45;;;;;;;17.97;78.27;101499.91;5047360;28;20015;-76
2021/08/15 06:16:38;;;;;;;15.48;5.78;;;;;;;18.49;75.72;101498.44;5063353;28;20057;-76
2021/08/15 06:19:03;;;;;;;16.02;5.97;;;;;;;18.83;74.19;101504.28;5077157;28;20327;-76
2021/08/15 06:21:29;;;;;;;15.63;6.03;;;;;;;18.68;74.71;101495.47;5061224;28;20059;-76
2021/08/15 06:23:54;;;;;;;13.57;5.22;;;;;;;18.53;75.46;101499.09;5079297;28;20038;-76
2021/08/15 06:26:20;;;;;;;13.75;5.90;;;;;;;18.31;76.51;101499.63;5078111;28;20188;-76
2021/08/15 06:28:45;;;;;;;11.40;5.38;;;;;;;18.38;75.69;101496.47;5078901;28;20056;-76
2021/08/15 06:31:10;;;;;;;17.75;6.75;;;;;;;18.57;75.55;101488.22;5079263;28;20059;-76
2021/08/15 06:33:36;;;;;;;14.95;6.05;;;;;;;18.61;75.43;101486.22;5073899;28;20065;-75
2021/08/15 06:36:01;;;;;;;13.32;5.68;;;;;;;19.84;70.94;101490.47;5083180;28;20054;-76
2021/08/15 06:38:27;;;;;;;14.45;5.50;;;;;;;19.58;72.37;101485.13;5063552;28;20028;-76
2021/08/15 06:40:53;;;;;;;15.70;6.20;;;;;;;19.55;71.99;101482.69;5080868;28;20040;-76
2021/08/15 06:43:19;;;;;;;14.50;6.00;;;;;;;19.43;72.60;101486.16;5080262;28;20067;-76
2021/08/15 06:45:44;;;;;;;10.38;5.35;;;;;;;19.30;72.74;101487.00;5062789;28;20335;-75
2021/08/15 06:48:10;;;;;;;21.15;6.45;;;;;;;19.27;73.50;101495.19;5086649;28;20039;-76
2021/08/15 06:50:35;;;;;;;15.05;5.93;;;;;;;19.68;71.65;101499.50;5094140;28;20050;-76
2021/08/15 06:53:01;;;;;;;17.67;5.60;;;;;;;19.90;70.55;101504.22;5082791;28;20323;-76
2021/08/15 06:55:26;;;;;;;17.15;6.40;;;;;;;19.99;70.18;101504.50;5082207;28;20073;-76
2021/08/15 06:57:52;;;;;;;13.50;5.00;;;;;;;21.28;67.01;101498.69;5100826;28;20028;-76
2021/08/15 07:00:17;;;;;;;13.70;5.97;;;;;;;21.88;64.49;101495.91;5082519;28;20032;-76
2021/08/15 07:02:49;;;;;;;11.13;5.70;;;;;;;23.12;60.87;101490.44;5082373;28;20325;-76
2021/08/15 07:05:15;;;;;;;11.45;5.93;;;;;;;23.92;58.84;101491.66;5100373;28;20074;-75
2021/08/15 07:07:40;;;;;;;13.48;6.25;;;;;;;24.29;57.41;101492.94;5069041;28;20040;-75
2021/08/15 07:10:06;;;;;;;12.80;6.00;;;;;;;24.76;55.17;101495.88;5062371;28;20029;-75
2021/08/15 07:12:32;;;;;;;17.90;6.55;;;;;;;24.43;53.62;101492.56;5061300;28;20343;-76
2021/08/15 07:14:57;;;;;;;17.80;6.68;;;;;;;25.38;54.40;101487.59;5062262;28;20048;-75
2021/08/15 07:17:23;;;;;;;13.45;5.60;;;;;;;25.96;53.01;101491.94;5079647;28;20032;-75
2021/08/15 07:19:48;;;;;;;12.73;6.50;;;;;;;25.73;53.37;101486.09;5080205;28;20252;-75
2021/08/15 07:22:13;;;;;;;11.80;6.07;;;;;;;25.93;53.11;101492.25;5080258;28;20044;-75
2021/08/15 07:24:39;;;;;;;16.13;6.80;;;;;;;25.61;49.84;101486.25;5085855;28;20279;-75
2021/08/15 07:27:04;;;;;;;11.77;5.90;;;;;;;25.09;53.56;101481.22;5077411;28;20343;-75
2021/08/15 07:29:30;;;;;;;9.73;5.80;;;;;;;26.23;51.07;101489.31;5094127;28;20044;-75
2021/08/15 07:31:55;;;;;;;14.38;5.90;;;;;;;26.22;49.74;101481.41;5090703;28;20040;-75
2021/08/15 07:34:20;;;;;;;11.93;5.90;;;;;;;26.44;49.05;101480.97;5066261;28;20024;-75
2021/08/15 07:36:46;;;;;;;11.80;6.10;;;;;;;27.00;49.41;101476.34;5081021;28;20106;-75
2021/08/15 07:39:12;;;;;;;13.95;5.53;;;;;;;27.31;48.69;101491.25;5067609;28;20047;-75
2021/08/15 07:41:38;;;;;;;11.90;6.10;;;;;;;27.57;46.76;101485.88;5069722;28;20036;-75
2021/08/15 07:44:03;;;;;;;11.50;5.78;;;;;;;27.02;47.11;101480.75;5061916;28;20028;-75
2021/08/15 07:46:29;;;;;;;11.75;6.28;;;;;;;27.44;47.35;101477.41;5061983;28;20055;-75
2021/08/15 07:48:55;;;;;;;6.18;4.57;;;;;;;26.74;44.88;101484.34;5053056;28;20082;-75
2021/08/15 07:51:20;;;;;;;8.65;4.70;;;;;;;27.02;45.34;101478.88;5079617;28;20036;-75
2021/08/15 07:53:46;;;;;;;12.15;5.95;;;;;;;27.95;47.25;101478.38;5061911;28;20055;-75
2021/08/15 07:56:11;;;;;;;11.73;6.22;;;;;;;27.92;46.32;101481.38;5079640;28;20063;-75
2021/08/15 07:58:37;;;;;;;12.48;5.35;;;;;;;27.41;46.53;101477.69;5061903;28;20020;-75
2021/08/15 08:01:02;;;;;;;10.27;5.32;;;;;;;27.73;46.84;101477.06;5080124;28;20029;-75
2021/08/15 08:03:28;;;;;;;11.13;5.93;;;;;;;28.39;46.11;101477.38;5079827;28;20040;-75
2021/08/15 08:05:53;;;;;;;14.68;5.85;;;;;;;28.29;46.19;101475.66;5079806;28;20036;-75
2021/08/15 08:08:18;;;;;;;13.07;5.53;;;;;;;28.60;44.66;101479.66;5061610;28;20350;-75
2021/08/15 08:10:53;;;;;;;10.70;5.35;;;;;;;28.96;44.36;101480.19;5079700;28;20043;-76
2021/08/15 08:13:19;;;;;;;11.88;5.20;;;;;;;27.85;43.65;101470.41;5061529;28;20025;-76
2021/08/15 08:15:44;;;;;;;20.80;6.40;;;;;;;28.13;42.96;101478.31;5079592;28;20032;-76
2021/08/15 08:18:10;;;;;;;8.43;5.57;;;;;;;28.22;44.75;101480.00;5061910;28;20323;-76
2021/08/15 08:20:35;;;;;;;7.90;5.50;;;;;;;28.27;44.08;101469.59;5061683;28;20025;-76
2021/08/15 08:23:05;;;;;;;11.23;5.95;;;;;;;28.37;44.81;101474.84;5061989;28;20044;-76
2021/08/15 08:25:30;;;;;;;9.35;5.10;;;;;;;28.82;43.64;101473.63;5064611;28;20036;-76
2021/08/15 08:27:55;;;;;;;11.20;5.38;;;;;;;28.12;43.61;101461.31;5048770;28;20415;-76
2021/08/15 08:30:21;;;;;;;10.63;5.25;;;;;;;28.32;44.10;101466.41;5065308;28;20044;-76
2021/08/15 08:32:46;;;;;;;8.38;4.78;;;;;;;28.08;41.89;101461.78;5065231;28;20032;-76
2021/08/15 08:35:12;;;;;;;12.35;5.47;;;;;;;28.74;43.30;101460.09;5092214;28;20042;-76
2021/08/15 08:37:37;;;;;;;10.38;4.70;;;;;;;29.09;42.20;101464.34;5103075;28;20034;-76
2021/08/15 08:40:04;;;;;;;12.88;5.68;;;;;;;29.27;41.87;101463.34;5085428;28;20036;-76
2021/08/15 08:42:31;;;;;;;8.55;4.82;;;;;;;29.37;39.73;101461.31;5086804;28;20047;-76
2021/08/15 08:44:56;;;;;;;8.73;5.47;;;;;;;29.68;40.28;101468.66;5048649;28;20092;-76
2021/08/15 08:47:22;;;;;;;6.93;4.85;;;;;;;28.57;41.78;101469.19;5083052;28;20032;-76
2021/08/15 08:49:47;;;;;;;9.82;4.57;;;;;;;28.37;42.25;101469.44;5065063;28;20035;-76
2021/08/15 08:52:13;;;;;;;6.07;4.05;;;;;;;29.00;42.31;101469.94;5082651;28;20099;-76
2021/08/15 08:54:38;;;;;;;10.43;5.15;;;;;;;28.63;41.16;101468.53;5064681;28;20043;-76
2021/08/15 08:57:03;;;;;;;8.40;5.03;;;;;;;28.96;40.93;101464.03;5082929;28;20029;-76
2021/08/15 08:59:29;;;;;;;6.20;4.40;;;;;;;28.49;41.85;101465.44;5082155;28;20044;-76
2021/08/15 09:01:54;;;;;;;10.13;5.18;;;;;;;28.47;42.58;101466.59;5083344;28;20227;-76
2021/08/15 09:04:20;;;;;;;10.13;5.03;;;;;;;28.80;41.24;101459.47;5064505;28;20044;-76
2021/08/15 09:06:45;;;;;;;8.75;4.57;;;;;;;28.16;41.84;101461.81;5082275;28;20039;-76
2021/08/15 09:09:18;;;;;;;11.60;4.80;;;;;;;28.99;41.01;101460.13;5052389;28;20209;-76
2021/08/15 09:11:45;;;;;;;12.57;4.97;;;;;;;29.35;39.98;101463.34;5082279;28;20135;-77
2021/08/15 09:14:16;;;;;;;8.88;4.78;;;;;;;29.11;40.28;101458.78;5064721;28;20029;-77
2021/08/15 09:17:01;;;;;;;7.40;4.68;;;;;;;29.15;40.95;101453.94;5064418;28;20052;-77
2021/08/15 09:19:31;;;;;;;7.03;4.45;;;;;;;29.06;40.61;101461.16;5064308;28;20044;-77
2021/08/15 09:22:13;;;;;;;8.82;4.43;;;;;;;28.64;42.21;101454.06;5064405;28;20040;-76
2021/08/15 09:24:47;;;;;;;10.48;5.43;;;;;;;29.31;41.13;101453.91;5082110;28;20320;-76
2021/08/15 09:27:37;;;;;;;9.02;5.65;;;;;;;29.25;39.61;101452.75;5081934;28;20027;-76
2021/08/15 09:30:29;;;;;;;9.77;4.47;;;;;;;29.73;41.33;101457.38;5081982;28;20155;-76
2021/08/15 09:33:05;;;;;;;6.25;4.35;;;;;;;29.71;39.58;101444.03;5079385;28;20036;-76
2021/08/15 09:35:36;;;;;;;10.27;4.10;;;;;;;29.97;40.03;101451.88;5062911;28;20043;-76
2021/08/15 09:38:09;;;;;;;6.35;3.92;;;;;;;28.63;41.69;101442.41;5082234;28;20056;-76
2021/08/15 09:40:39;;;;;;;5.75;4.38;;;;;;;29.43;39.73;101439.06;5067013;28;20019;-76
2021/08/15 09:43:09;;;;;;;7.05;4.10;;;;;;;29.17;40.76;101438.44;5065109;28;20213;-76
2021/08/15 09:45:37;;;;;;;9.45;3.78;;;;;;;29.36;40.97;101439.91;5057872;28;20346;-76
2021/08/15 09:48:24;;;;;;;6.90;4.60;;;;;;;29.66;40.57;101443.72;5088499;28;20373;-76
2021/08/15 09:51:11;;;;;;;4.97;3.35;;;;;;;30.39;38.89;101431.78;5073491;28;20021;-76
2021/08/15 09:53:55;;;;;;;5.67;3.33;;;;;;;30.65;38.29;101438.69;5086626;28;20091;-76
2021/08/15 09:56:46;;;;;;;3.55;3.00;;;;;;;30.64;38.82;101445.13;5073561;28;20066;-76
2021/08/15 09:59:19;;;;;;;6.20;3.50;;;;;;;30.10;38.33;101437.81;5089527;28;20036;-76
2021/08/15 10:01:49;;;;;;;5.00;3.30;;;;;;;29.65;41.00;101428.53;5055979;28;20038;-76
2021/08/15 10:04:14;;;;;;;4.57;3.30;;;;;;;31.16;38.37;101430.88;5089199;28;20103;-76
2021/08/15 10:06:41;;;;;;;4.22;3.10;;;;;;;30.14;39.00;101422.94;5036481;28;20315;-76
2021/08/15 10:09:07;;;;;;;4.57;3.25;;;;;;;30.74;38.01;101421.38;5089364;28;20032;-76
2021/08/15 10:11:33;;;;;;;6.00;3.20;;;;;;;31.66;37.93;101419.53;5067858;28;20044;-76
2021/08/15 10:14:02;;;;;;;7.57;3.60;;;;;;;32.62;36.17;101422.13;5053506;28;20055;-76
2021/08/15 10:16:35;;;;;;;4.32;3.05;;;;;;;31.50;35.93;101412.44;5058337;28;20327;-76
2021/08/15 10:19:03;;;;;;;9.23;3.20;;;;;;;30.85;38.56;101422.81;5075939;28;20028;-76
2021/08/15 10:21:28;;;;;;;4.78;3.03;;;;;;;29.95;40.42;101418.81;5062898;28;20355;-76
2021/08/15 10:24:11;;;;;;;4.38;3.08;;;;;;;29.68;39.14;101406.59;5046940;28;20024;-76
2021/08/15 10:26:49;;;;;;;2.90;2.70;;;;;;;30.96;37.62;101411.63;5056675;28;20024;-76
2021/08/15 10:29:30;;;;;;;;;;;;;;;30.77;37.69;101410.22;5071813;28;20036;-76
2021/08/15 10:32:08;;;;;;;4.00;2.80;;;;;;;31.42;37.61;101410.63;5101627;28;20223;-76
2021/08/15 10:34:51;;;;;;;6.60;3.03;;;;;;;29.86;41.23;101401.81;5082656;28;20046;-76
2021/08/15 10:37:23;;;;;;;3.67;3.05;;;;;;;30.29;37.70;101408.66;5101125;28;20072;-76
2021/08/15 10:39:49;;;;;;;3.47;2.83;;;;;;;31.29;37.90;101408.56;5083079;28;20032;-76
2021/08/15 10:42:45;;;;;;;5.05;2.53;;;;;;;30.62;37.65;101407.47;5066167;28;20046;-76
2021/08/15 10:45:13;;;;;;;5.90;3.40;;;;;;;30.73;38.17;101399.97;5075567;28;20071;-76
2021/08/15 10:47:38;;;;;;;3.90;2.72;;;;;;;28.77;41.82;101399.66;5082991;28;20023;-76
2021/08/15 10:50:05;;;;;;;3.58;2.72;;;;;;;29.47;39.82;101390.97;5083172;28;20032;-76
2021/08/15 10:52:35;;;;;;;4.10;2.87;;;;;;;29.90;39.84;101396.06;5082726;28;20055;-76
2021/08/15 10:55:01;;;;;;;4.03;2.88;;;;;;;29.92;40.36;101386.78;5066961;28;20313;-76
2021/08/15 10:57:41;;;;;;;4.88;2.75;;;;;;;31.26;37.93;101381.06;5082453;28;20332;-76
2021/08/15 11:00:34;;;;;;;4.22;2.70;;;;;;;29.79;39.58;101379.25;5066624;28;20105;-75
2021/08/15 11:03:22;;;;;;;2.90;2.65;;;;;;;29.23;41.16;101376.53;5100960;28;20031;-75
2021/08/15 11:05:48;;;;;;;3.75;2.53;;;;;;;28.07;43.80;101390.09;5100484;28;20227;-75
2021/08/15 11:08:32;;;;;;;2.70;2.47;;;;;;;27.77;43.58;101385.09;5045861;28;20091;-75
2021/08/15 11:11:04;;;;;;;2.60;2.40;;;;;;;27.52;45.61;101386.84;5080053;28;20031;-75
2021/08/15 11:13:31;;;;;;;4.90;2.53;;;;;;;27.36;44.57;101378.66;5082230;28;20046;-75
2021/08/15 11:16:27;;;;;;;9.65;2.90;;;;;;;27.25;45.11;101377.09;5101119;28;20058;-75
2021/08/15 11:19:08;;;;;;;6.28;2.35;;;;;;;27.09;45.83;101382.34;5100586;28;20086;-75
2021/08/15 11:22:04;;;;;;;3.55;2.55;;;;;;;26.75;46.81;101373.19;5099979;28;20039;-75
2021/08/15 11:24:46;;;;;;;4.50;2.97;;;;;;;26.59;47.17;101375.69;5099771;28;20301;-75